CheckWX is a tool to help pilots better visualize weather data.  It is not intended as a substitute for an official pre-flight weather briefing.

12:58:19 UTC

4A9 METAR
Isbell Field Airport
Fort Payne, Alabama, USA
Current

23 mins ago

K4A9 161235Z AUTO 00000KT 10SM CLR 24/23 A3015 RMK AO2 T02400225
Observed
Jul-16 @ 12:35 UTC
Visibility
10 SM
Flight Rules
VFR
Cloud Levels
  • Clear skies
Temperature
24°C / 75°F
Dewpoint
23°C / 73°F
Humidity
94%
Altimeter
30.15" Hg
Pressure
1021.02 hPa
Previous

1 hour ago

K4A9 161155Z AUTO 00000KT 10SM CLR 22/22 A3014 RMK AO2 T02220216 10237 20212
Observed
Jul-16 @ 11:55 UTC
Visibility
10 SM
Flight Rules
VFR
Cloud Levels
  • Clear skies
Temperature
22°C / 72°F
Dewpoint
22°C / 72°F
Humidity
100%
Altimeter
30.14" Hg
Pressure
1020.62 hPa
Previous

1 hour ago

K4A9 161135Z AUTO 00000KT 10SM CLR 22/21 A3014 RMK AO2 T02170214
Observed
Jul-16 @ 11:35 UTC
Visibility
10 SM
Flight Rules
VFR
Cloud Levels
  • Clear skies
Temperature
22°C / 72°F
Dewpoint
21°C / 70°F
Humidity
94%
Altimeter
30.14" Hg
Pressure
1020.62 hPa